createdAt,value
2018-03-08T00:00:18.251Z,49.13
2018-03-08T00:02:46.603Z,52.67
2018-03-08T00:05:14.940Z,53.03
2018-03-08T00:07:44.106Z,56.10
2018-03-08T00:10:12.493Z,68.63
2018-03-08T00:12:40.892Z,59.80
2018-03-08T00:15:09.270Z,62.80
2018-03-08T00:17:37.576Z,63.33
2018-03-08T00:20:05.913Z,61.93
2018-03-08T00:22:34.258Z,63.73
2018-03-08T00:25:03.426Z,67.57
2018-03-08T00:27:31.857Z,71.67
2018-03-08T00:30:00.977Z,77.57
2018-03-08T00:32:29.372Z,72.37
2018-03-08T00:34:57.743Z,76.03
2018-03-08T00:37:26.131Z,79.47
2018-03-08T00:39:54.811Z,81.17
2018-03-08T00:42:23.133Z,81.37
2018-03-08T00:44:51.504Z,88.13
2018-03-08T00:47:19.839Z,86.50
2018-03-08T00:49:48.317Z,98.07
2018-03-08T00:52:17.711Z,90.93
2018-03-08T00:54:46.924Z,105.53
2018-03-08T00:57:16.242Z,117.03
2018-03-08T00:59:44.633Z,106.53
2018-03-08T01:02:12.960Z,114.43
2018-03-08T01:04:41.341Z,110.17
2018-03-08T01:07:09.723Z,105.40
2018-03-08T01:09:38.160Z,113.00
2018-03-08T01:12:06.549Z,113.20
2018-03-08T01:14:34.944Z,111.10
2018-03-08T01:17:03.339Z,116.63
2018-03-08T01:19:31.717Z,121.77
2018-03-08T01:22:00.218Z,116.93
2018-03-08T01:24:28.595Z,117.70
2018-03-08T01:26:58.917Z,115.13
2018-03-08T01:29:27.378Z,104.40
2018-03-08T01:31:55.759Z,114.63
2018-03-08T01:34:24.203Z,106.37
2018-03-08T01:36:53.410Z,111.70
2018-03-08T01:39:22.619Z,112.90
2018-03-08T01:41:51.733Z,115.23
2018-03-08T01:44:20.131Z,126.20
2018-03-08T01:46:48.628Z,114.93
2018-03-08T01:49:17.267Z,121.47
2018-03-08T01:52:03.954Z,125.23
2018-03-08T01:54:33.125Z,112.23
2018-03-08T01:57:01.555Z,110.33
2018-03-08T01:59:30.683Z,99.40
2018-03-08T02:01:59.057Z,116.03
2018-03-08T02:04:28.199Z,103.33
2018-03-08T02:06:57.363Z,96.60
2018-03-08T02:09:25.738Z,113.63
2018-03-08T02:11:54.353Z,97.33
2018-03-08T02:14:22.867Z,89.30
2018-03-08T02:16:51.215Z,77.97
2018-03-08T02:19:19.627Z,89.80
2018-03-08T02:21:47.975Z,75.63
2018-03-08T02:24:16.904Z,70.57
2018-03-08T02:26:46.042Z,81.60
2018-03-08T02:29:14.661Z,71.13
2018-03-08T02:31:43.273Z,74.17
2018-03-08T02:34:11.639Z,69.67
2018-03-08T02:36:40.026Z,67.27
2018-03-08T02:39:08.501Z,61.90
2018-03-08T02:41:36.869Z,73.13
2018-03-08T02:44:05.245Z,72.13
2018-03-08T02:46:33.655Z,56.83
2018-03-08T02:49:03.625Z,63.20
2018-03-08T02:51:32.014Z,60.10
2018-03-08T02:54:00.407Z,53.70
2018-03-08T02:56:28.880Z,70.03
2018-03-08T02:58:57.342Z,67.87
2018-03-08T03:01:26.506Z,54.03
2018-03-08T03:03:55.767Z,56.47
2018-03-08T03:06:24.171Z,65.60
2018-03-08T03:08:52.631Z,57.23
2018-03-08T03:11:21.229Z,52.00
2018-03-08T03:13:49.555Z,51.93
2018-03-08T03:16:19.665Z,49.53
2018-03-08T03:18:48.047Z,55.33
2018-03-08T03:21:16.450Z,53.57
2018-03-08T03:23:47.114Z,55.70
2018-03-08T03:26:16.359Z,46.33
2018-03-08T03:28:44.751Z,58.07
2018-03-08T03:31:13.058Z,47.80
2018-03-08T03:33:42.209Z,44.70
2018-03-08T03:36:11.409Z,53.13
2018-03-08T03:38:39.809Z,55.33
2018-03-08T03:41:08.181Z,54.50
2018-03-08T03:43:36.539Z,52.77
2018-03-08T03:46:04.891Z,71.07
2018-03-08T03:48:34.048Z,55.57
2018-03-08T03:51:02.397Z,60.47
2018-03-08T03:53:31.660Z,59.90
2018-03-08T03:56:00.005Z,54.83
2018-03-08T03:58:28.328Z,58.33
2018-03-08T04:00:57.421Z,51.23
2018-03-08T04:03:25.746Z,57.57
2018-03-08T04:05:54.169Z,52.23
2018-03-08T04:08:22.489Z,48.33
2018-03-08T04:10:50.847Z,50.90
2018-03-08T04:13:19.229Z,52.63
2018-03-08T04:15:47.720Z,55.80
2018-03-08T04:18:16.060Z,64.50
2018-03-08T04:20:44.385Z,54.70
2018-03-08T04:23:13.556Z,59.97
2018-03-08T04:25:41.885Z,59.87
2018-03-08T04:28:10.305Z,69.93
2018-03-08T04:30:38.834Z,59.47
2018-03-08T04:33:07.997Z,62.33
2018-03-08T04:35:36.352Z,67.83
2018-03-08T04:38:04.733Z,59.00
2018-03-08T04:40:33.079Z,66.17
2018-03-08T04:43:02.238Z,61.83
2018-03-08T04:45:30.631Z,62.70
2018-03-08T04:48:00.363Z,60.20
2018-03-08T04:50:29.533Z,46.40
2018-03-08T04:52:58.019Z,60.97
2018-03-08T04:55:26.356Z,58.33
2018-03-08T04:57:55.517Z,68.00
2018-03-08T05:00:24.665Z,62.10
2018-03-08T05:02:53.046Z,56.53
2018-03-08T05:05:21.407Z,63.37
2018-03-08T05:07:50.528Z,60.93
2018-03-08T05:10:18.851Z,56.60
2018-03-08T05:12:47.157Z,56.00
2018-03-08T05:15:15.585Z,52.90
2018-03-08T05:17:43.980Z,64.47
2018-03-08T05:20:12.493Z,45.77
2018-03-08T05:22:40.814Z,46.70
2018-03-08T05:25:09.916Z,51.90
2018-03-08T05:27:39.067Z,58.20
2018-03-08T05:30:07.568Z,51.07
2018-03-08T05:32:37.437Z,60.50
2018-03-08T05:35:07.141Z,55.47
2018-03-08T05:37:36.340Z,58.13
2018-03-08T05:40:04.746Z,53.13
2018-03-08T05:42:33.145Z,49.57
2018-03-08T05:45:01.521Z,57.67
2018-03-08T05:47:29.882Z,60.77
2018-03-08T05:49:59.052Z,64.60
2018-03-08T05:52:27.490Z,54.83
2018-03-08T05:54:55.847Z,57.03
2018-03-08T05:57:24.187Z,54.43
2018-03-08T05:59:53.282Z,58.60
2018-03-08T06:02:23.181Z,60.10
2018-03-08T06:04:51.570Z,65.40
2018-03-08T06:07:19.973Z,65.97
2018-03-08T06:09:48.360Z,66.67
2018-03-08T06:12:18.032Z,66.30
2018-03-08T06:14:46.365Z,65.13
2018-03-08T06:17:14.724Z,63.50
2018-03-08T06:19:43.830Z,63.47
2018-03-08T06:22:12.923Z,60.03
2018-03-08T06:24:42.039Z,68.90
2018-03-08T06:27:12.034Z,61.20
2018-03-08T06:29:40.410Z,57.13
2018-03-08T06:32:08.794Z,65.63
2018-03-08T06:34:37.120Z,49.60
2018-03-08T06:37:05.452Z,61.10
2018-03-08T06:39:33.831Z,44.03
2018-03-08T06:42:02.173Z,41.13
2018-03-08T06:44:30.508Z,38.50
2018-03-08T06:46:59.648Z,41.17
2018-03-08T06:49:27.989Z,40.03
2018-03-08T06:51:56.834Z,37.00
2018-03-08T06:54:25.599Z,38.43
2018-03-08T06:56:53.988Z,35.63
2018-03-08T06:59:22.309Z,37.20
2018-03-08T07:01:50.659Z,33.80
2018-03-08T07:04:19.029Z,32.33
2018-03-08T07:06:47.356Z,42.50
2018-03-08T07:09:15.703Z,28.53
2018-03-08T07:11:44.034Z,31.13
2018-03-08T07:14:12.354Z,28.80
2018-03-08T07:16:40.685Z,27.50
2018-03-08T07:19:09.052Z,24.57
2018-03-08T07:21:37.365Z,25.70
2018-03-08T07:24:06.499Z,22.87
2018-03-08T07:26:34.813Z,24.47
2018-03-08T07:29:03.158Z,18.37
2018-03-08T07:31:31.499Z,24.57
2018-03-08T07:33:59.825Z,20.37
2018-03-08T07:36:28.935Z,15.93
2018-03-08T07:38:57.313Z,20.63
2018-03-08T07:41:25.696Z,16.47
2018-03-08T07:43:54.009Z,17.40
2018-03-08T07:46:22.481Z,17.00
2018-03-08T07:48:52.351Z,16.40
2018-03-08T07:51:21.424Z,19.80
2018-03-08T07:53:51.088Z,18.37
2018-03-08T07:56:19.412Z,18.20
2018-03-08T07:58:47.713Z,17.00
2018-03-08T08:01:17.590Z,17.97
2018-03-08T08:03:45.914Z,18.07
2018-03-08T08:09:27.657Z,20.90
2018-03-08T08:11:55.976Z,23.57
2018-03-08T08:14:24.322Z,20.13
2018-03-08T08:16:52.652Z,20.57
2018-03-08T08:19:21.738Z,20.10
2018-03-08T08:21:50.044Z,18.40
2018-03-08T08:24:18.395Z,19.97
2018-03-08T08:26:46.742Z,23.63
2018-03-08T08:29:15.051Z,19.50
2018-03-08T08:31:43.367Z,20.43
2018-03-08T08:34:11.738Z,18.77
2018-03-08T08:36:40.125Z,27.73
2018-03-08T08:39:08.454Z,22.87
2018-03-08T08:41:36.811Z,18.03
2018-03-08T08:44:05.132Z,20.07
2018-03-08T08:49:09.509Z,17.57
2018-03-08T08:51:37.860Z,18.67
2018-03-08T08:54:06.955Z,26.20
2018-03-08T08:56:35.326Z,19.50
2018-03-08T08:59:04.226Z,20.93
2018-03-08T09:01:34.039Z,20.83
2018-03-08T09:04:02.364Z,22.77
2018-03-08T09:06:30.746Z,26.40
2018-03-08T09:08:59.074Z,24.43
2018-03-08T09:11:27.390Z,25.67
2018-03-08T09:13:56.475Z,28.53
2018-03-08T09:16:25.518Z,36.20
2018-03-08T09:18:53.912Z,41.40
2018-03-08T09:21:22.252Z,37.63
2018-03-08T09:23:51.418Z,41.87
2018-03-08T09:26:19.726Z,39.30
2018-03-08T09:28:48.854Z,38.13
2018-03-08T09:31:17.524Z,39.53
2018-03-08T09:33:46.705Z,42.70
2018-03-08T09:36:15.783Z,38.43
2018-03-08T09:38:44.117Z,44.27
2018-03-08T09:41:12.452Z,37.67
2018-03-08T09:43:40.801Z,47.53
2018-03-08T09:46:09.201Z,46.03
2018-03-08T09:48:37.522Z,47.67
2018-03-08T09:51:05.881Z,47.00
2018-03-08T09:53:34.378Z,48.17
2018-03-08T09:56:02.694Z,52.77
2018-03-08T09:58:30.999Z,45.20
2018-03-08T10:00:59.613Z,41.33
2018-03-08T10:03:27.908Z,51.00
2018-03-08T10:05:57.001Z,56.87
2018-03-08T10:08:25.407Z,54.27
2018-03-08T10:10:54.531Z,40.13
2018-03-08T10:13:22.827Z,51.30
2018-03-08T10:15:51.212Z,46.47
2018-03-08T10:18:19.925Z,41.13
2018-03-08T10:20:48.239Z,37.27
2018-03-08T10:23:17.320Z,40.83
2018-03-08T10:25:46.418Z,37.23
2018-03-08T10:28:15.498Z,35.50
2018-03-08T10:30:43.844Z,37.00
2018-03-08T10:33:12.222Z,27.97
2018-03-08T10:35:40.584Z,23.60
2018-03-08T10:38:08.908Z,17.63
2018-03-08T10:40:44.255Z,20.43
2018-03-08T10:43:05.608Z,20.77
2018-03-08T10:45:33.966Z,24.13
2018-03-08T10:48:02.342Z,24.07
2018-03-08T10:50:30.676Z,22.17
2018-03-08T10:52:59.053Z,27.23
2018-03-08T10:55:27.403Z,26.73
2018-03-08T10:57:55.720Z,31.83
2018-03-08T11:00:29.682Z,28.97
2018-03-08T11:02:58.000Z,30.17
2018-03-08T11:05:27.104Z,32.37
2018-03-08T11:07:56.224Z,33.40
2018-03-08T11:10:24.556Z,33.77
2018-03-08T11:12:52.889Z,31.60
2018-03-08T11:15:21.212Z,29.50
2018-03-08T11:17:50.348Z,33.87
2018-03-08T11:20:18.672Z,33.10
2018-03-08T11:22:47.012Z,33.57
2018-03-08T11:25:15.332Z,35.83
2018-03-08T11:27:43.648Z,36.13
2018-03-08T11:30:12.767Z,28.23
2018-03-08T11:32:41.092Z,28.70
2018-03-08T11:35:09.448Z,22.87
2018-03-08T11:37:37.754Z,23.93
2018-03-08T11:40:06.077Z,25.07
2018-03-08T11:42:35.223Z,19.83
2018-03-08T11:45:04.293Z,22.27
2018-03-08T11:47:32.619Z,21.73
2018-03-08T11:50:00.953Z,20.40
2018-03-08T11:52:29.290Z,20.30
2018-03-08T11:54:57.620Z,17.90
2018-03-08T11:57:26.012Z,15.97
2018-03-08T11:59:54.370Z,11.07
2018-03-08T12:02:23.458Z,14.27
2018-03-08T12:04:52.538Z,13.00
2018-03-08T12:07:20.870Z,10.80
2018-03-08T12:09:49.194Z,11.47
2018-03-08T12:12:17.552Z,10.33
2018-03-08T12:14:45.850Z,9.83
2018-03-08T12:17:14.203Z,10.50
2018-03-08T12:19:42.515Z,8.60
2018-03-08T12:22:10.811Z,8.20
2018-03-08T12:24:39.179Z,8.20
2018-03-08T12:27:07.525Z,7.40
2018-03-08T12:29:35.856Z,6.97
2018-03-08T12:32:04.264Z,6.47
2018-03-08T12:34:32.938Z,6.80
2018-03-08T12:37:01.285Z,8.13
2018-03-08T12:39:29.607Z,6.83
2018-03-08T12:41:58.703Z,6.10
2018-03-08T12:44:27.193Z,7.40
2018-03-08T12:46:56.271Z,7.63
2018-03-08T12:49:24.629Z,8.37
2018-03-08T12:51:53.113Z,7.27
2018-03-08T12:54:21.567Z,7.10
2018-03-08T12:56:49.909Z,5.80
2018-03-08T12:59:18.249Z,5.80
2018-03-08T13:01:46.589Z,8.23
2018-03-08T13:04:14.885Z,6.23
2018-03-08T13:06:43.205Z,5.67
2018-03-08T13:09:11.548Z,5.17
2018-03-08T13:11:39.967Z,5.43
2018-03-08T13:14:08.232Z,5.77
2018-03-08T13:16:36.582Z,6.27
2018-03-08T13:19:04.948Z,4.77
2018-03-08T13:21:33.307Z,5.80
2018-03-08T13:24:01.746Z,7.97
2018-03-08T13:26:30.040Z,5.93
2018-03-08T13:28:58.380Z,11.37
2018-03-08T13:31:26.857Z,4.03
2018-03-08T13:33:56.003Z,8.30
2018-03-08T13:36:24.463Z,7.23
2018-03-08T13:38:52.837Z,11.50
2018-03-08T13:41:22.121Z,8.80
2018-03-08T13:43:50.489Z,7.57
2018-03-08T13:46:20.363Z,5.80
2018-03-08T13:48:48.723Z,8.60
2018-03-08T13:51:17.886Z,9.73
2018-03-08T13:53:46.204Z,6.17
2018-03-08T13:56:15.301Z,7.23
2018-03-08T13:58:44.389Z,8.13
2018-03-08T14:01:14.139Z,7.20
2018-03-08T14:03:42.462Z,7.30
2018-03-08T14:06:10.789Z,5.70
2018-03-08T14:08:39.134Z,4.97
2018-03-08T14:11:07.479Z,5.70
2018-03-08T14:13:35.832Z,5.00
2018-03-08T14:16:04.145Z,8.07
2018-03-08T14:18:32.454Z,5.20
2018-03-08T14:21:00.765Z,8.00
2018-03-08T14:23:29.967Z,4.30
2018-03-08T14:25:58.495Z,8.60
2018-03-08T14:28:26.799Z,4.27
2018-03-08T14:30:55.144Z,5.70
2018-03-08T14:33:23.451Z,5.93
2018-03-08T14:35:51.762Z,10.00
2018-03-08T14:38:20.874Z,8.20
2018-03-08T14:40:49.275Z,6.20
2018-03-08T14:43:17.585Z,6.80
2018-03-08T14:45:45.945Z,6.00
2018-03-08T14:48:14.239Z,6.90
2018-03-08T14:50:42.574Z,7.77
2018-03-08T14:53:11.655Z,6.87
2018-03-08T14:55:40.071Z,7.50
2018-03-08T14:58:08.385Z,6.57
2018-03-08T15:00:36.724Z,7.40
2018-03-08T15:03:05.055Z,11.23
2018-03-08T15:05:33.401Z,6.33
2018-03-08T15:08:01.738Z,8.70
2018-03-08T15:10:30.067Z,6.10
2018-03-08T15:12:58.381Z,10.93
2018-03-08T15:15:26.707Z,8.20
2018-03-08T15:17:55.049Z,10.83
2018-03-08T15:20:23.377Z,8.07
2018-03-08T15:22:53.531Z,12.20
2018-03-08T15:25:23.399Z,8.57
2018-03-08T15:27:52.479Z,11.37
2018-03-08T15:30:20.810Z,7.40
2018-03-08T15:32:49.173Z,17.50
2018-03-08T15:35:17.485Z,11.03
2018-03-08T15:37:45.789Z,12.60
2018-03-08T15:40:14.144Z,14.47
2018-03-08T15:42:42.490Z,16.03
2018-03-08T15:45:11.626Z,14.40
2018-03-08T15:47:40.772Z,9.30
2018-03-08T15:50:09.079Z,9.70
2018-03-08T15:52:38.167Z,6.83
2018-03-08T15:55:07.294Z,9.30
2018-03-08T15:57:35.659Z,10.70
2018-03-08T16:00:04.056Z,7.90
2018-03-08T16:02:32.355Z,9.77
2018-03-08T16:05:00.656Z,9.00
2018-03-08T16:10:43.076Z,10.17
2018-03-08T16:13:11.445Z,10.40
2018-03-08T16:15:40.527Z,9.30
2018-03-08T16:18:08.884Z,13.43
2018-03-08T16:20:37.201Z,11.17
2018-03-08T16:23:05.528Z,13.83
2018-03-08T16:39:51.532Z,15.50
2018-03-08T16:42:19.908Z,10.63
2018-03-08T16:44:48.273Z,9.10
2018-03-08T16:47:16.602Z,9.47
2018-03-08T16:49:45.692Z,11.70
2018-03-08T16:52:14.263Z,8.93
2018-03-08T16:54:43.151Z,13.03
2018-03-08T16:57:11.588Z,5.30
2018-03-08T16:59:39.934Z,6.73
2018-03-08T17:02:09.206Z,6.53
2018-03-08T17:04:37.577Z,7.83
2018-03-08T17:07:05.867Z,10.40
2018-03-08T17:09:35.059Z,6.03
2018-03-08T17:12:03.503Z,9.50
2018-03-08T17:14:31.761Z,7.23
2018-03-08T17:17:00.075Z,9.90
2018-03-08T17:19:29.261Z,8.40
2018-03-08T17:21:58.388Z,13.97
2018-03-08T17:24:27.467Z,7.80
2018-03-08T17:26:55.779Z,9.30
2018-03-08T17:29:24.198Z,17.03
2018-03-08T17:31:52.662Z,15.43
2018-03-08T17:34:20.956Z,14.77
2018-03-08T17:36:49.838Z,16.23
2018-03-08T17:39:18.143Z,17.83
2018-03-08T17:41:47.244Z,14.60
2018-03-08T17:44:15.589Z,14.47
2018-03-08T17:46:44.637Z,19.43
2018-03-08T17:49:13.702Z,18.43
2018-03-08T17:51:42.033Z,14.23
2018-03-08T17:54:10.372Z,19.87
2018-03-08T17:56:39.031Z,15.67
2018-03-08T17:59:08.142Z,13.87
2018-03-08T18:01:36.495Z,12.63
2018-03-08T18:04:04.954Z,14.50
2018-03-08T18:06:33.304Z,16.27
2018-03-08T18:09:02.401Z,14.17
2018-03-08T18:11:30.709Z,14.27
2018-03-08T18:13:59.030Z,8.17
2018-03-08T18:16:28.096Z,13.77
2018-03-08T18:18:56.407Z,12.93
2018-03-08T18:21:24.773Z,8.57
2018-03-08T18:23:53.101Z,14.43
2018-03-08T18:26:21.476Z,16.70
2018-03-08T18:28:50.646Z,10.43
2018-03-08T18:31:18.956Z,12.03
2018-03-08T18:33:48.931Z,11.20
2018-03-08T18:36:17.219Z,7.63
2018-03-08T18:38:46.072Z,12.80
2018-03-08T18:41:14.510Z,10.33
2018-03-08T18:43:42.836Z,12.13
2018-03-08T18:46:11.984Z,8.70
2018-03-08T18:48:40.323Z,11.23
2018-03-08T18:51:08.631Z,7.10
2018-03-08T18:53:37.110Z,10.43
2018-03-08T18:56:05.421Z,9.03
2018-03-08T18:58:33.772Z,5.60
2018-03-08T19:01:02.082Z,9.03
2018-03-08T19:03:30.529Z,13.93
2018-03-08T19:05:58.848Z,10.10
2018-03-08T19:08:27.916Z,10.07
2018-03-08T19:10:56.831Z,7.73
2018-03-08T19:13:25.142Z,12.83
2018-03-08T19:15:54.435Z,11.33
2018-03-08T19:18:22.748Z,8.37
2018-03-08T19:20:51.808Z,8.63
2018-03-08T19:23:20.107Z,8.87
2018-03-08T19:25:48.412Z,8.90
2018-03-08T19:28:17.666Z,13.80
2018-03-08T19:30:45.976Z,7.37
2018-03-08T19:33:14.342Z,8.97
2018-03-08T19:35:42.631Z,6.97
2018-03-08T19:38:10.926Z,7.17
2018-03-08T19:40:39.988Z,10.20
2018-03-08T19:43:08.289Z,10.67
2018-03-08T19:45:36.634Z,13.83
2018-03-08T19:48:05.012Z,7.77
2018-03-08T19:50:33.329Z,7.57
2018-03-08T19:53:01.640Z,9.53
2018-03-08T19:55:30.737Z,7.20
2018-03-08T19:57:59.062Z,8.50
2018-03-08T20:00:27.418Z,10.33
2018-03-08T20:02:55.936Z,8.20
2018-03-08T20:05:24.268Z,6.70
2018-03-08T20:07:53.359Z,6.13
2018-03-08T20:10:21.670Z,7.40
2018-03-08T20:12:50.816Z,9.50
2018-03-08T20:15:19.154Z,7.67
2018-03-08T20:17:48.210Z,6.60
2018-03-08T20:20:16.518Z,5.67
2018-03-08T20:22:44.840Z,9.40
2018-03-08T20:25:13.170Z,6.20
2018-03-08T20:27:41.511Z,5.50
2018-03-08T20:30:09.839Z,9.27
2018-03-08T20:32:38.168Z,10.03
2018-03-08T20:35:06.797Z,5.90
2018-03-08T20:37:35.112Z,6.83
2018-03-08T20:40:04.172Z,5.70
2018-03-08T20:42:32.540Z,6.27
2018-03-08T20:45:00.835Z,8.67
2018-03-08T20:47:29.126Z,8.73
2018-03-08T20:49:58.218Z,4.97
2018-03-08T20:52:26.552Z,6.30
2018-03-08T20:54:54.938Z,9.13
2018-03-08T20:57:23.252Z,12.00
2018-03-08T20:59:51.536Z,7.80
2018-03-08T21:02:20.586Z,8.17
2018-03-08T21:04:49.660Z,9.20
2018-03-08T21:07:17.951Z,5.13
2018-03-08T21:09:46.267Z,7.43
2018-03-08T21:12:14.595Z,6.80
2018-03-08T21:14:42.911Z,5.87
2018-03-08T21:17:12.032Z,10.50
2018-03-08T21:19:40.345Z,11.53
2018-03-08T21:22:08.691Z,9.03
2018-03-08T21:24:36.982Z,7.83
2018-03-08T21:27:05.380Z,6.97
2018-03-08T21:29:34.169Z,6.77
2018-03-08T21:32:02.462Z,5.53
2018-03-08T21:34:30.778Z,5.40
2018-03-08T21:36:59.086Z,10.10
2018-03-08T21:39:27.492Z,11.03
2018-03-08T21:41:55.783Z,13.13
2018-03-08T21:44:24.076Z,7.37
2018-03-08T21:46:52.385Z,10.00
2018-03-08T21:49:20.672Z,7.50
2018-03-08T21:51:48.976Z,12.37
2018-03-08T21:54:18.038Z,10.07
2018-03-08T21:56:46.354Z,5.87
2018-03-08T21:59:15.405Z,11.10
2018-03-08T22:01:43.696Z,5.60
2018-03-08T22:04:12.020Z,6.47
2018-03-08T22:06:40.326Z,9.93
2018-03-08T22:09:08.633Z,5.90
2018-03-08T22:11:36.936Z,7.37
2018-03-08T22:14:06.000Z,8.40
2018-03-08T22:16:34.281Z,9.67
2018-03-08T22:19:02.575Z,7.70
2018-03-08T22:21:30.900Z,12.23
2018-03-08T22:24:00.107Z,9.33
2018-03-08T22:26:29.200Z,6.90
2018-03-08T22:28:58.260Z,4.87
2018-03-08T22:31:26.548Z,11.50
2018-03-08T22:33:54.844Z,7.10
2018-03-08T22:36:23.531Z,7.10
2018-03-08T22:38:51.900Z,12.87
2018-03-08T22:41:20.467Z,9.00
2018-03-08T22:43:48.759Z,5.37
2018-03-08T22:46:17.039Z,10.70
2018-03-08T22:48:45.339Z,11.03
2018-03-08T22:51:13.654Z,8.50
2018-03-08T22:53:42.766Z,10.93
2018-03-08T22:56:11.047Z,13.93
2018-03-08T22:58:40.118Z,14.33
2018-03-08T23:01:08.415Z,14.10
2018-03-08T23:03:37.470Z,15.20
2018-03-08T23:06:05.770Z,11.77
2018-03-08T23:08:34.085Z,12.37
2018-03-08T23:11:03.207Z,11.07
2018-03-08T23:13:31.502Z,10.70
2018-03-08T23:15:59.779Z,7.83
2018-03-08T23:18:28.074Z,14.73
2018-03-08T23:20:56.371Z,14.30
2018-03-08T23:23:24.675Z,10.23
2018-03-08T23:25:53.740Z,14.60
2018-03-08T23:28:22.796Z,15.37
2018-03-08T23:30:51.176Z,12.30
2018-03-08T23:33:20.256Z,15.27
2018-03-08T23:35:49.362Z,17.03
2018-03-08T23:38:18.424Z,7.40
2018-03-08T23:40:46.743Z,10.37
2018-03-08T23:43:15.791Z,14.93
2018-03-08T23:45:44.114Z,7.63
2018-03-08T23:48:13.207Z,9.80
2018-03-08T23:50:41.519Z,14.30
2018-03-08T23:53:09.822Z,8.93
2018-03-08T23:55:38.260Z,15.37
2018-03-08T23:58:06.560Z,13.60
